Seneca, Oregon
Current Conditions -  °F | °C
As of 7:35 AM on Friday 19 Dec 2014 (Local Time) from KGCD Reporting Station
Drizzle Drizzle  
Wind Chill: 33°   Ceiling: 8500
Heat Index: 42°   Visibility: 10mi
Dew Point: 35°   Wind: 17mph
Humidity: 77%   Direction: 180°S
Pressure: 29.95"   Gusts: 25mph
Location:  44.13°N, 118.97°W
Report Text: KGCD 191535Z AUTO 18015G22KT 10SM -DZ SCT030 SCT060 OVC085 05/02 A2995 RMK AO2 T00540016
Loading
Personal Weather Stations






























Interactive Weather Map New forecast layout! Learn more

10-Day Weather Forecast

Advertisements
Track Severe Weather on mobile